Time;durP1;ratioP1;P1;durP2;ratioP2;P2;SDS_P1;SDS_P2;PMS_P1;PMS_P2;Temp;Humidity;BMP_temperature;BMP_pressure;BME280_temperature;BME280_humidity;BME280_pressure;Samples;Min_cycle;Max_cycle;Signal;HPM_P1;HPM_P2
2022/10/18 00:00:01;;;;;;;;;;;19.70;98.40;;;;;;4954149;28;19977;-64
2022/10/18 00:02:27;;;;;;;;;;;19.80;98.40;;;;;;4955177;29;19945;-70
2022/10/18 00:04:53;;;;;;;;;;;19.60;98.50;;;;;;4955623;28;19926;-70
2022/10/18 00:07:18;;;;;;;;;;;19.80;98.40;;;;;;4955026;29;19937;-70
2022/10/18 00:09:44;;;;;;;;;;;19.50;98.30;;;;;;4936777;29;19933;-69
2022/10/18 00:12:09;;;;;;;;;;;19.90;98.50;;;;;;4938721;29;19926;-69
2022/10/18 00:14:35;;;;;;;;;;;19.70;98.50;;;;;;4954309;29;19977;-71
2022/10/18 00:17:00;;;;;;;;;;;19.70;98.40;;;;;;4941199;29;19927;-71
2022/10/18 00:19:26;;;;;;;;;;;19.60;98.50;;;;;;4958122;28;19986;-71
2022/10/18 00:21:52;;;;;;;;;;;19.80;98.40;;;;;;4958733;28;19981;-69
2022/10/18 00:24:18;;;;;;;;;;;19.60;98.30;;;;;;4958555;29;19949;-71
2022/10/18 00:26:43;;;;;;;;;;;19.80;98.40;;;;;;4941038;29;19926;-70
2022/10/18 00:29:09;;;;;;;;;;;19.80;98.50;;;;;;4959019;29;20300;-70
2022/10/18 00:31:36;;;;;;;;;;;19.90;98.60;;;;;;4940871;29;19927;-69
2022/10/18 00:34:06;;;;;;;;;;;19.80;98.40;;;;;;4941574;29;19927;-66
2022/10/18 00:36:33;;;;;;;;;;;19.90;98.60;;;;;;4958728;29;19934;-66
2022/10/18 00:38:58;;;;;;;;;;;19.70;98.30;;;;;;4940622;29;20447;-70
2022/10/18 00:41:25;;;;;;;;;;;19.50;98.40;;;;;;4940547;28;19930;-71
2022/10/18 00:44:26;;;;;;;;;;;19.70;98.30;;;;;;4958318;29;20288;-72
2022/10/18 00:46:53;;;;;;;;;;;19.70;98.30;;;;;;4898941;29;19970;-67
2022/10/18 00:49:22;;;;;;;;;;;19.80;98.30;;;;;;4879956;29;20313;-71
2022/10/18 00:52:01;;;;;;;;;;;19.70;97.90;;;;;;4895086;29;20413;-71
2022/10/18 00:54:27;;;;;;;;;;;19.90;98.30;;;;;;4899144;29;19977;-72
2022/10/18 00:56:52;;;;;;;;;;;20.20;98.60;;;;;;4899403;29;19959;-71
2022/10/18 00:59:18;;;;;;;;;;;19.70;98.30;;;;;;4897740;29;19975;-71
2022/10/18 01:01:44;;;;;;;;;;;19.70;98.20;;;;;;4882710;29;20009;-71
2022/10/18 01:04:10;;;;;;;;;;;19.50;98.20;;;;;;4897868;29;19967;-71
2022/10/18 01:06:54;;;;;;;;;;;19.40;98.00;;;;;;4883559;29;19935;-71
2022/10/18 01:09:23;;;;;;;;;;;19.70;97.90;;;;;;4897741;29;20026;-71
2022/10/18 01:12:00;;;;;;;;;;;19.70;98.40;;;;;;4884564;29;19931;-71
2022/10/18 01:14:33;;;;;;;;;;;19.60;98.20;;;;;;4897901;29;20341;-71
2022/10/18 01:16:59;;;;;;;;;;;19.60;97.80;;;;;;4898599;29;19931;-71
2022/10/18 01:19:32;;;;;;;;;;;19.60;98.40;;;;;;4898554;29;19928;-70
2022/10/18 01:22:02;;;;;;;;;;;19.60;98.20;;;;;;4922731;29;19977;-69
2022/10/18 01:24:33;;;;;;;;;;;19.70;97.80;;;;;;4939967;29;20348;-69
2022/10/18 01:27:22;;;;;;;;;;;19.40;98.10;;;;;;4957777;29;19937;-71
2022/10/18 01:30:06;;;;;;;;;;;19.70;98.20;;;;;;4901067;29;19928;-71
2022/10/18 01:32:34;;;;;;;;;;;19.90;97.80;;;;;;4898587;29;19978;-70
2022/10/18 01:35:04;;;;;;;;;;;19.50;98.10;;;;;;4896971;29;19927;-70
2022/10/18 01:37:29;;;;;;;;;;;19.90;97.80;;;;;;4879715;29;19928;-71
2022/10/18 01:39:55;;;;;;;;;;;19.80;98.30;;;;;;4897180;29;20025;-71
2022/10/18 01:42:21;;;;;;;;;;;19.80;98.10;;;;;;4898192;29;19970;-70
2022/10/18 01:44:46;;;;;;;;;;;19.70;98.30;;;;;;4898082;29;20358;-69
2022/10/18 01:47:12;;;;;;;;;;;19.10;98.00;;;;;;4878840;29;19935;-69
2022/10/18 01:49:38;;;;;;;;;;;19.70;98.10;;;;;;4894145;29;19927;-71
2022/10/18 01:52:04;;;;;;;;;;;19.70;98.10;;;;;;4898034;29;19994;-70
2022/10/18 01:54:31;;;;;;;;;;;19.40;98.20;;;;;;4898060;29;19979;-70
2022/10/18 01:56:57;;;;;;;;;;;19.50;97.70;;;;;;4863504;29;19931;-67
2022/10/18 01:59:29;;;;;;;;;;;19.70;98.10;;;;;;4882277;29;19967;-66
2022/10/18 02:02:03;;;;;;;;;;;19.50;97.60;;;;;;4863807;29;20334;-69
2022/10/18 02:04:32;;;;;;;;;;;19.40;98.00;;;;;;4904273;29;19931;-70
2022/10/18 02:07:01;;;;;;;;;;;19.60;97.70;;;;;;4930921;28;19933;-71
2022/10/18 02:09:29;;;;;;;;;;;19.60;98.10;;;;;;4939527;29;19946;-71
2022/10/18 02:11:54;;;;;;;;;;;19.70;98.10;;;;;;4938072;29;20303;-70
2022/10/18 02:14:20;;;;;;;;;;;19.60;98.10;;;;;;4923059;29;19926;-70
2022/10/18 02:16:53;;;;;;;;;;;19.70;98.10;;;;;;4956738;29;19933;-69
2022/10/18 02:19:20;;;;;;;;;;;19.50;98.00;;;;;;4923491;28;20438;-68
2022/10/18 02:21:46;;;;;;;;;;;19.50;98.00;;;;;;4946733;29;19927;-71
2022/10/18 02:24:12;;;;;;;;;;;19.50;98.00;;;;;;4939789;29;19926;-70
2022/10/18 02:26:37;;;;;;;;;;;19.50;98.00;;;;;;4956163;29;20388;-70
2022/10/18 02:29:03;;;;;;;;;;;19.40;98.00;;;;;;4938829;29;19945;-67
2022/10/18 02:31:35;;;;;;;;;;;19.70;98.00;;;;;;4939530;29;19931;-67
2022/10/18 02:34:05;;;;;;;;;;;19.50;98.00;;;;;;4938443;29;19934;-68
2022/10/18 02:36:32;;;;;;;;;;;19.50;97.90;;;;;;4939414;29;19933;-69
2022/10/18 02:39:02;;;;;;;;;;;19.60;97.90;;;;;;4938307;29;20384;-69
2022/10/18 02:41:29;;;;;;;;;;;19.30;97.90;;;;;;4939306;29;19978;-69
2022/10/18 02:43:54;;;;;;;;;;;19.70;97.90;;;;;;4939137;29;20005;-69
2022/10/18 02:46:20;;;;;;;;;;;19.50;97.90;;;;;;4955242;28;20013;-69
2022/10/18 02:48:45;;;;;;;;;;;19.40;97.90;;;;;;4933229;28;19942;-71
2022/10/18 02:51:11;;;;;;;;;;;19.60;97.90;;;;;;4955949;29;19926;-67
2022/10/18 02:53:37;;;;;;;;;;;19.30;98.00;;;;;;4956365;28;20021;-67
2022/10/18 02:56:02;;;;;;;;;;;19.60;97.90;;;;;;4955242;28;19926;-71
2022/10/18 02:58:28;;;;;;;;;;;19.50;97.90;;;;;;4938663;29;19937;-66
2022/10/18 03:00:53;;;;;;;;;;;19.60;97.90;;;;;;4937409;29;19927;-67
2022/10/18 03:03:19;;;;;;;;;;;19.60;97.90;;;;;;4938935;29;19934;-65
2022/10/18 03:05:47;;;;;;;;;;;19.70;97.90;;;;;;4955329;29;19926;-67
2022/10/18 03:08:13;;;;;;;;;;;19.40;97.80;;;;;;4955993;29;19930;-66
2022/10/18 03:10:39;;;;;;;;;;;19.30;97.70;;;;;;4955343;28;20399;-68
2022/10/18 03:13:04;;;;;;;;;;;19.50;97.80;;;;;;4954914;28;19934;-66
2022/10/18 03:15:30;;;;;;;;;;;19.40;97.70;;;;;;4955860;29;20299;-67
2022/10/18 03:17:55;;;;;;;;;;;19.50;97.70;;;;;;4955479;29;20364;-67
2022/10/18 03:20:22;;;;;;;;;;;19.50;97.70;;;;;;4955612;29;20025;-70
2022/10/18 03:22:47;;;;;;;;;;;19.50;97.70;;;;;;4954687;29;19926;-68
2022/10/18 03:25:13;;;;;;;;;;;19.50;97.70;;;;;;4955680;29;19926;-67
2022/10/18 03:27:38;;;;;;;;;;;19.10;97.60;;;;;;4960002;28;20022;-68
2022/10/18 03:30:04;;;;;;;;;;;19.80;97.80;;;;;;4955832;28;19931;-67
2022/10/18 03:32:30;;;;;;;;;;;19.50;97.70;;;;;;4954509;28;19981;-67
2022/10/18 03:34:55;;;;;;;;;;;19.50;97.70;;;;;;4937850;29;20017;-67
2022/10/18 03:37:21;;;;;;;;;;;19.40;97.70;;;;;;4938105;29;19933;-68
2022/10/18 03:39:47;;;;;;;;;;;19.40;97.90;;;;;;4955289;29;19933;-71
2022/10/18 03:42:12;;;;;;;;;;;19.50;97.80;;;;;;4954307;28;19936;-70
2022/10/18 03:44:38;;;;;;;;;;;19.40;97.70;;;;;;4959430;28;19965;-66
2022/10/18 03:47:03;;;;;;;;;;;19.50;97.80;;;;;;4956868;28;19974;-67
2022/10/18 03:49:29;;;;;;;;;;;19.30;97.70;;;;;;4937992;29;20353;-69
2022/10/18 03:51:55;;;;;;;;;;;19.50;97.70;;;;;;4937776;29;19993;-68
2022/10/18 03:54:20;;;;;;;;;;;19.30;97.70;;;;;;4952238;28;19949;-68
2022/10/18 03:56:46;;;;;;;;;;;19.60;97.90;;;;;;4955413;29;19947;-69
2022/10/18 03:59:11;;;;;;;;;;;19.60;97.80;;;;;;4954627;29;20455;-67
2022/10/18 04:01:37;;;;;;;;;;;19.50;97.80;;;;;;4955484;28;19926;-67
2022/10/18 04:04:03;;;;;;;;;;;19.50;97.70;;;;;;4953941;28;20021;-68
2022/10/18 04:06:28;;;;;;;;;;;19.50;97.70;;;;;;4954412;29;19930;-66
2022/10/18 04:08:54;;;;;;;;;;;19.50;97.80;;;;;;4955312;29;19981;-68
2022/10/18 04:11:20;;;;;;;;;;;;;;;;;;4937121;29;20300;-67
2022/10/18 04:13:46;;;;;;;;;;;19.60;97.30;;;;;;4936995;28;20273;-67
2022/10/18 04:16:11;;;;;;;;;;;19.30;97.70;;;;;;4954874;29;19926;-67
2022/10/18 04:18:37;;;;;;;;;;;19.60;97.70;;;;;;4955401;28;20312;-68
2022/10/18 04:21:02;;;;;;;;;;;19.40;97.70;;;;;;4955074;29;19932;-67
2022/10/18 04:23:28;;;;;;;;;;;19.50;97.70;;;;;;4954878;29;20390;-67
2022/10/18 04:25:54;;;;;;;;;;;19.50;97.70;;;;;;4937777;29;20018;-65
2022/10/18 04:28:19;;;;;;;;;;;19.60;97.90;;;;;;4954483;29;20448;-67
2022/10/18 04:30:51;;;;;;;;;;;19.40;97.60;;;;;;4937950;29;19926;-67
2022/10/18 04:33:17;;;;;;;;;;;19.40;97.60;;;;;;4954972;29;19989;-66
2022/10/18 04:35:43;;;;;;;;;;;19.30;97.60;;;;;;4937912;29;20388;-67
2022/10/18 04:38:09;;;;;;;;;;;19.40;97.60;;;;;;4953671;28;19996;-68
2022/10/18 04:40:34;;;;;;;;;;;19.40;97.60;;;;;;4937495;29;20456;-68
2022/10/18 04:43:00;;;;;;;;;;;19.50;97.60;;;;;;4955083;29;20025;-68
2022/10/18 04:45:25;;;;;;;;;;;19.70;97.80;;;;;;4921428;29;20448;-66
2022/10/18 04:47:51;;;;;;;;;;;19.60;97.60;;;;;;4953668;28;19926;-67
2022/10/18 04:50:17;;;;;;;;;;;19.20;97.60;;;;;;4954158;28;19926;-67
2022/10/18 04:52:42;;;;;;;;;;;19.40;97.60;;;;;;4940313;28;20303;-68
2022/10/18 04:55:08;;;;;;;;;;;19.40;97.60;;;;;;4937054;29;20351;-66
2022/10/18 04:57:34;;;;;;;;;;;19.30;97.50;;;;;;4954874;28;19930;-64
2022/10/18 04:59:59;;;;;;;;;;;19.40;97.70;;;;;;4941203;29;19927;-67
2022/10/18 05:02:25;;;;;;;;;;;19.60;97.60;;;;;;4940718;29;19931;-66
2022/10/18 05:04:51;;;;;;;;;;;19.40;97.60;;;;;;4940240;29;19973;-67
2022/10/18 05:07:16;;;;;;;;;;;19.40;97.50;;;;;;4940244;29;19954;-65
2022/10/18 05:09:42;;;;;;;;;;;19.60;97.80;;;;;;4944825;28;19926;-67
2022/10/18 05:12:08;;;;;;;;;;;19.40;97.60;;;;;;4957598;29;20009;-68
2022/10/18 05:14:33;;;;;;;;;;;19.70;97.60;;;;;;4958081;29;20025;-67
2022/10/18 05:16:59;;;;;;;;;;;19.40;97.50;;;;;;4957727;29;20333;-66
2022/10/18 05:19:24;;;;;;;;;;;19.40;97.50;;;;;;4939289;28;20384;-71
2022/10/18 05:21:50;;;;;;;;;;;19.30;97.50;;;;;;4957410;29;19929;-67
2022/10/18 05:24:16;;;;;;;;;;;19.60;97.50;;;;;;4957794;29;19962;-66
2022/10/18 05:26:41;;;;;;;;;;;19.50;97.50;;;;;;4962615;28;19996;-66
2022/10/18 05:29:07;;;;;;;;;;;19.50;97.60;;;;;;4957030;28;19945;-68
2022/10/18 05:31:33;;;;;;;;;;;19.60;97.60;;;;;;4957781;29;19926;-66
2022/10/18 05:34:00;;;;;;;;;;;19.70;97.70;;;;;;4957458;29;19980;-68
2022/10/18 05:36:25;;;;;;;;;;;19.50;97.60;;;;;;4940280;29;19931;-67
2022/10/18 05:38:52;;;;;;;;;;;19.70;97.70;;;;;;4956190;28;20345;-66
2022/10/18 05:41:18;;;;;;;;;;;19.50;97.60;;;;;;4957006;29;20025;-66
2022/10/18 05:43:43;;;;;;;;;;;19.70;97.60;;;;;;4957794;28;20009;-66
2022/10/18 05:46:09;;;;;;;;;;;19.20;97.50;;;;;;4956987;29;19933;-66
2022/10/18 05:48:35;;;;;;;;;;;19.60;97.60;;;;;;4957567;29;20025;-67
2022/10/18 05:51:00;;;;;;;;;;;19.40;97.50;;;;;;4956389;28;19930;-67
2022/10/18 05:53:26;;;;;;;;;;;19.60;97.60;;;;;;4939166;28;20018;-66
2022/10/18 05:55:52;;;;;;;;;;;19.70;97.60;;;;;;4956994;29;20285;-68
2022/10/18 05:58:17;;;;;;;;;;;19.50;97.50;;;;;;4939504;29;20192;-69
2022/10/18 06:00:43;;;;;;;;;;;19.70;97.50;;;;;;4957212;28;20045;-68
2022/10/18 06:03:09;;;;;;;;;;;19.60;97.50;;;;;;4955908;28;20404;-68
2022/10/18 06:05:34;;;;;;;;;;;19.60;97.50;;;;;;4956101;28;20399;-67
2022/10/18 06:08:00;;;;;;;;;;;19.50;97.40;;;;;;4956963;28;19926;-66
2022/10/18 06:10:25;;;;;;;;;;;19.70;97.50;;;;;;4955921;28;19934;-67
2022/10/18 06:12:51;;;;;;;;;;;19.90;97.50;;;;;;4955866;28;20086;-66
2022/10/18 06:15:17;;;;;;;;;;;19.50;97.40;;;;;;4956527;29;19927;-67
2022/10/18 06:17:42;;;;;;;;;;;19.80;97.50;;;;;;4956266;28;19933;-66
2022/10/18 06:20:08;;;;;;;;;;;19.30;97.40;;;;;;4955657;28;20024;-67
2022/10/18 06:22:33;;;;;;;;;;;19.60;97.50;;;;;;4955279;29;19944;-67
2022/10/18 06:24:59;;;;;;;;;;;19.50;97.40;;;;;;4938632;28;20435;-66
2022/10/18 06:27:25;;;;;;;;;;;19.50;97.40;;;;;;4950343;29;19926;-64
2022/10/18 06:29:50;;;;;;;;;;;19.40;97.40;;;;;;4956124;28;20029;-65
2022/10/18 06:32:16;;;;;;;;;;;19.60;97.30;;;;;;4956554;29;19974;-64
2022/10/18 06:34:41;;;;;;;;;;;19.30;97.30;;;;;;4939555;29;20373;-66
2022/10/18 06:37:08;;;;;;;;;;;19.70;97.40;;;;;;4955081;28;19926;-65
2022/10/18 06:39:33;;;;;;;;;;;19.80;97.40;;;;;;4956105;29;19990;-67
2022/10/18 06:41:59;;;;;;;;;;;19.80;97.40;;;;;;4956485;29;19922;-66
2022/10/18 06:44:25;;;;;;;;;;;19.30;97.30;;;;;;4954599;28;19927;-66
2022/10/18 06:46:52;;;;;;;;;;;19.70;97.30;;;;;;4938508;28;20006;-66
2022/10/18 06:49:18;;;;;;;;;;;19.50;97.30;;;;;;4956344;28;20339;-66
2022/10/18 06:51:44;;;;;;;;;;;19.50;97.20;;;;;;4961684;28;19926;-65
2022/10/18 06:54:10;;;;;;;;;;;19.80;97.30;;;;;;4950552;29;19927;-66
2022/10/18 06:56:35;;;;;;;;;;;19.50;97.20;;;;;;4939315;29;19949;-66
2022/10/18 06:59:01;;;;;;;;;;;19.80;97.20;;;;;;4956832;29;19962;-65
2022/10/18 07:01:27;;;;;;;;;;;19.80;97.20;;;;;;4956805;29;19933;-67
2022/10/18 07:03:53;;;;;;;;;;;19.60;97.10;;;;;;4956687;29;19926;-66
2022/10/18 07:06:18;;;;;;;;;;;19.60;97.10;;;;;;4938457;29;20021;-66
2022/10/18 07:08:44;;;;;;;;;;;19.60;97.10;;;;;;4961730;28;19933;-65
2022/10/18 07:11:13;;;;;;;;;;;19.70;97.10;;;;;;4965645;28;19982;-66
2022/10/18 07:13:39;;;;;;;;;;;19.40;97.00;;;;;;4957029;29;19933;-66
2022/10/18 07:16:08;;;;;;;;;;;19.70;97.10;;;;;;4955815;28;19927;-66
2022/10/18 07:18:35;;;;;;;;;;;19.60;97.10;;;;;;4939329;29;20148;-67
2022/10/18 07:21:05;;;;;;;;;;;19.70;97.00;;;;;;4955584;28;19927;-68
2022/10/18 07:23:31;;;;;;;;;;;19.40;96.90;;;;;;4956450;29;20296;-67
2022/10/18 07:25:57;;;;;;;;;;;19.70;96.80;;;;;;4955642;28;19926;-67
2022/10/18 07:28:22;;;;;;;;;;;19.60;96.70;;;;;;4956368;29;20022;-68
2022/10/18 07:30:48;;;;;;;;;;;19.50;96.70;;;;;;4956027;29;19937;-67
2022/10/18 07:33:14;;;;;;;;;;;19.70;96.70;;;;;;4956076;29;19933;-67
2022/10/18 07:35:39;;;;;;;;;;;19.60;96.60;;;;;;4938394;28;19930;-66
2022/10/18 07:38:05;;;;;;;;;;;19.70;96.70;;;;;;4956155;29;19965;-67
2022/10/18 07:40:30;;;;;;;;;;;19.70;96.60;;;;;;4956249;29;19970;-69
2022/10/18 07:42:56;;;;;;;;;;;19.80;96.50;;;;;;4953936;28;19926;-73
2022/10/18 07:45:22;;;;;;;;;;;19.80;96.40;;;;;;4955838;29;20278;-66
2022/10/18 07:47:47;;;;;;;;;;;19.60;96.40;;;;;;4956150;29;20492;-70
2022/10/18 07:50:13;;;;;;;;;;;19.50;96.30;;;;;;4922772;29;20393;-65
2022/10/18 07:52:39;;;;;;;;;;;19.70;96.20;;;;;;4938665;29;19926;-67
2022/10/18 07:55:05;;;;;;;;;;;19.60;96.10;;;;;;4954617;28;19926;-71
2022/10/18 07:57:30;;;;;;;;;;;19.70;96.10;;;;;;4956032;29;20021;-69
2022/10/18 07:59:56;;;;;;;;;;;19.90;96.20;;;;;;4957878;28;19934;-69
2022/10/18 08:02:22;;;;;;;;;;;19.80;96.10;;;;;;4955620;29;19927;-70
2022/10/18 08:04:48;;;;;;;;;;;18.20;95.70;;;;;;4950383;28;19934;-66
2022/10/18 08:07:13;;;;;;;;;;;20.00;96.10;;;;;;4933701;29;19926;-73
2022/10/18 08:09:39;;;;;;;;;;;19.90;96.10;;;;;;4954071;28;19934;-74
2022/10/18 08:12:05;;;;;;;;;;;20.10;96.10;;;;;;4955849;29;20269;-74
2022/10/18 08:14:30;;;;;;;;;;;19.90;95.90;;;;;;4954443;28;20039;-68
2022/10/18 08:16:56;;;;;;;;;;;20.00;96.00;;;;;;4937335;28;19927;-70
2022/10/18 08:19:22;;;;;;;;;;;19.90;96.10;;;;;;4938290;29;19931;-74
2022/10/18 08:21:47;;;;;;;;;;;19.90;95.90;;;;;;4955659;29;19926;-66
2022/10/18 08:24:13;;;;;;;;;;;20.00;95.90;;;;;;4954725;28;19927;-67
2022/10/18 08:26:38;;;;;;;;;;;19.90;95.90;;;;;;4938268;29;19927;-67
2022/10/18 08:29:04;;;;;;;;;;;20.20;95.90;;;;;;4955383;29;19926;-67
2022/10/18 08:31:30;;;;;;;;;;;20.00;95.90;;;;;;4955657;28;19926;-68
2022/10/18 08:33:58;;;;;;;;;;;20.00;95.80;;;;;;4965770;28;20415;-67
2022/10/18 08:36:24;;;;;;;;;;;20.20;95.90;;;;;;4941536;29;19927;-75
2022/10/18 08:38:50;;;;;;;;;;;20.00;95.80;;;;;;4959671;29;19926;-74
2022/10/18 08:41:22;;;;;;;;;;;20.20;95.80;;;;;;4959370;29;19963;-69
2022/10/18 08:44:07;;;;;;;;;;;20.30;95.60;;;;;;4957728;28;20345;-68
2022/10/18 08:46:34;;;;;;;;;;;20.40;95.60;;;;;;4947722;28;19970;-68
2022/10/18 08:48:59;;;;;;;;;;;20.40;95.70;;;;;;4959493;29;19950;-72
2022/10/18 08:51:25;;;;;;;;;;;20.30;95.40;;;;;;4952551;28;20364;-73
2022/10/18 08:53:53;;;;;;;;;;;20.50;95.30;;;;;;4965255;28;19933;-70
2022/10/18 08:56:22;;;;;;;;;;;20.70;95.50;;;;;;4956911;29;20300;-72
2022/10/18 08:58:48;;;;;;;;;;;20.60;95.30;;;;;;4942323;29;19930;-70
2022/10/18 09:01:14;;;;;;;;;;;20.70;95.20;;;;;;4941798;29;20074;-67
2022/10/18 09:03:46;;;;;;;;;;;20.50;95.30;;;;;;4958881;29;19927;-71
2022/10/18 09:06:15;;;;;;;;;;;20.80;94.80;;;;;;4958527;29;19934;-68
2022/10/18 09:08:59;;;;;;;;;;;20.60;95.20;;;;;;4941968;29;19933;-68
2022/10/18 09:11:24;;;;;;;;;;;21.00;94.70;;;;;;4958776;29;20300;-70
2022/10/18 09:14:09;;;;;;;;;;;21.00;95.20;;;;;;4958474;29;19934;-73
2022/10/18 09:16:43;;;;;;;;;;;20.60;94.50;;;;;;4958767;29;19930;-72
2022/10/18 09:19:41;;;;;;;;;;;20.70;94.60;;;;;;4958689;29;19926;-71
2022/10/18 09:22:10;;;;;;;;;;;20.80;94.60;;;;;;4880638;29;19935;-69
2022/10/18 09:24:36;;;;;;;;;;;20.80;95.20;;;;;;4865326;29;19928;-66
2022/10/18 09:27:09;;;;;;;;;;;20.80;95.00;;;;;;4881143;29;20275;-67
2022/10/18 09:29:41;;;;;;;;;;;20.60;94.60;;;;;;4864969;29;19927;-67
2022/10/18 09:32:22;;;;;;;;;;;20.70;94.60;;;;;;4865076;29;19928;-68
2022/10/18 09:34:58;;;;;;;;;;;20.40;94.50;;;;;;4880706;29;19938;-71
2022/10/18 09:37:24;;;;;;;;;;;20.50;94.60;;;;;;4864902;29;19976;-72
2022/10/18 09:39:50;;;;;;;;;;;20.70;95.10;;;;;;4880316;29;20018;-68
2022/10/18 09:42:27;;;;;;;;;;;20.70;95.30;;;;;;4865548;29;20343;-67
2022/10/18 09:45:00;;;;;;;;;;;20.40;94.60;;;;;;4879839;29;19928;-69
2022/10/18 09:47:29;;;;;;;;;;;20.50;94.70;;;;;;4880308;29;19928;-71
2022/10/18 09:50:02;;;;;;;;;;;20.60;95.30;;;;;;4864568;29;20386;-71
2022/10/18 09:52:36;;;;;;;;;;;20.70;94.80;;;;;;4864599;29;20405;-74
2022/10/18 09:55:07;;;;;;;;;;;20.80;94.90;;;;;;4864389;29;20299;-73
2022/10/18 09:57:33;;;;;;;;;;;20.80;95.40;;;;;;4903349;29;20005;-73
2022/10/18 09:59:59;;;;;;;;;;;20.90;95.40;;;;;;4933830;29;19966;-74
2022/10/18 10:02:24;;;;;;;;;;;20.70;95.50;;;;;;4956322;29;19926;-70
2022/10/18 10:04:50;;;;;;;;;;;20.60;95.50;;;;;;4957680;29;19927;-73
2022/10/18 10:07:19;;;;;;;;;;;20.50;95.50;;;;;;4957506;29;19926;-68
2022/10/18 10:09:55;;;;;;;;;;;20.90;95.10;;;;;;4956438;29;19932;-74
2022/10/18 10:12:24;;;;;;;;;;;20.90;95.10;;;;;;4957371;29;19927;-75
2022/10/18 10:14:50;;;;;;;;;;;20.70;95.00;;;;;;4957404;29;19927;-75
2022/10/18 10:17:23;;;;;;;;;;;20.80;95.40;;;;;;4958131;28;19933;-71
2022/10/18 10:19:56;;;;;;;;;;;20.70;95.00;;;;;;4957383;29;19934;-72
2022/10/18 10:22:37;;;;;;;;;;;20.90;95.00;;;;;;4955976;29;20500;-74
2022/10/18 10:25:03;;;;;;;;;;;21.10;95.10;;;;;;4939908;29;19926;-74
2022/10/18 10:27:29;;;;;;;;;;;20.90;95.40;;;;;;4957402;29;20272;-74
2022/10/18 10:29:56;;;;;;;;;;;21.00;95.40;;;;;;4957395;29;19934;-75
2022/10/18 10:32:22;;;;;;;;;;;21.10;95.60;;;;;;4957905;28;19930;-72
2022/10/18 10:34:48;;;;;;;;;;;21.30;95.70;;;;;;4939847;29;19977;-76
2022/10/18 10:37:23;;;;;;;;;;;21.40;95.40;;;;;;4956523;29;19926;-73
2022/10/18 10:40:09;;;;;;;;;;;21.00;94.90;;;;;;4956110;29;19926;-74
2022/10/18 10:42:36;;;;;;;;;;;20.90;95.40;;;;;;4946709;29;19932;-73
2022/10/18 10:45:02;;;;;;;;;;;21.10;95.40;;;;;;4939913;29;19973;-74
2022/10/18 10:47:27;;;;;;;;;;;21.10;95.10;;;;;;4956719;29;20357;-70
2022/10/18 10:49:53;;;;;;;;;;;21.30;95.20;;;;;;4962532;28;19922;-73
2022/10/18 10:52:19;;;;;;;;;;;21.40;95.20;;;;;;4956334;28;19934;-65
2022/10/18 10:54:45;;;;;;;;;;;21.20;95.20;;;;;;4955837;28;20284;-74
2022/10/18 10:57:11;;;;;;;;;;;21.40;95.00;;;;;;4939015;29;20010;-69
2022/10/18 10:59:43;;;;;;;;;;;21.40;95.00;;;;;;4939403;29;20009;-70
2022/10/18 11:02:12;;;;;;;;;;;21.40;94.40;;;;;;4939666;29;19981;-73
2022/10/18 11:04:39;;;;;;;;;;;21.40;94.40;;;;;;4938106;29;20300;-72
2022/10/18 11:07:08;;;;;;;;;;;21.70;94.90;;;;;;4940067;29;19970;-72
2022/10/18 11:09:37;;;;;;;;;;;21.60;94.30;;;;;;4956688;29;19926;-73
2022/10/18 11:12:04;;;;;;;;;;;21.80;94.40;;;;;;4939143;29;19926;-73
2022/10/18 11:14:34;;;;;;;;;;;21.70;94.70;;;;;;4954683;29;19926;-68
2022/10/18 11:17:11;;;;;;;;;;;21.50;94.80;;;;;;4936418;29;19926;-67
2022/10/18 11:19:39;;;;;;;;;;;21.80;94.30;;;;;;4956457;29;19927;-70
2022/10/18 11:22:05;;;;;;;;;;;21.80;94.80;;;;;;4956003;29;19961;-72
2022/10/18 11:24:31;;;;;;;;;;;21.80;94.80;;;;;;4937994;29;19934;-71
2022/10/18 11:26:58;;;;;;;;;;;21.60;94.60;;;;;;4956350;29;19926;-73
2022/10/18 11:29:23;;;;;;;;;;;21.70;94.70;;;;;;4939284;29;19926;-72
2022/10/18 11:32:05;;;;;;;;;;;21.70;94.50;;;;;;4956072;29;20409;-71
2022/10/18 11:34:37;;;;;;;;;;;21.70;94.10;;;;;;4938310;29;19935;-72
2022/10/18 11:37:22;;;;;;;;;;;21.80;94.00;;;;;;4958208;28;19926;-72
2022/10/18 11:40:00;;;;;;;;;;;21.90;93.90;;;;;;4955893;29;20033;-70
2022/10/18 11:42:46;;;;;;;;;;;22.00;93.90;;;;;;4957435;28;19926;-71
2022/10/18 11:45:30;;;;;;;;;;;22.20;94.40;;;;;;4954300;28;19934;-71
2022/10/18 11:47:56;;;;;;;;;;;22.10;93.70;;;;;;4955232;28;19974;-72
2022/10/18 11:50:25;;;;;;;;;;;22.40;94.10;;;;;;4954755;28;20372;-68
2022/10/18 11:52:55;;;;;;;;;;;22.20;93.70;;;;;;4937699;29;19955;-70
2022/10/18 11:55:33;;;;;;;;;;;22.00;94.40;;;;;;4920362;29;20394;-73
2022/10/18 11:58:01;;;;;;;;;;;21.90;93.70;;;;;;4951670;28;19974;-66
2022/10/18 12:00:43;;;;;;;;;;;22.00;94.20;;;;;;4953134;28;19926;-65
2022/10/18 12:03:23;;;;;;;;;;;22.20;93.60;;;;;;4916668;29;19927;-66
2022/10/18 12:05:49;;;;;;;;;;;22.30;93.60;;;;;;4949794;28;20380;-72
2022/10/18 12:08:44;;;;;;;;;;;22.30;93.90;;;;;;4944673;29;19927;-63
2022/10/18 12:11:17;;;;;;;;;;;22.10;93.30;;;;;;4865631;29;19986;-68
2022/10/18 12:14:05;;;;;;;;;;;22.30;93.10;;;;;;4832984;29;19947;-66
2022/10/18 12:16:33;;;;;;;;;;;22.30;93.20;;;;;;4811325;29;19937;-66
2022/10/18 12:18:59;;;;;;;;;;;23.20;93.60;;;;;;4810969;29;20326;-67
2022/10/18 12:21:25;;;;;;;;;;;24.30;92.00;;;;;;4810746;29;19936;-66
2022/10/18 12:24:07;;;;;;;;;;;25.60;90.90;;;;;;4810454;29;20024;-67
2022/10/18 12:26:33;;;;;;;;;;;26.30;88.00;;;;;;4810419;29;19940;-66
2022/10/18 12:29:12;;;;;;;;;;;26.60;86.60;;;;;;4810651;29;19936;-67
2022/10/18 12:31:43;;;;;;;;;;;26.00;85.00;;;;;;4815458;29;19929;-69
2022/10/18 12:34:14;;;;;;;;;;;25.10;84.80;;;;;;4828045;29;20333;-67
2022/10/18 12:36:58;;;;;;;;;;;24.90;85.70;;;;;;4828075;29;19929;-71
2022/10/18 12:39:25;;;;;;;;;;;25.30;86.00;;;;;;4813426;29;20444;-65
2022/10/18 12:41:52;;;;;;;;;;;25.80;86.30;;;;;;4828654;29;20284;-67
2022/10/18 12:44:20;;;;;;;;;;;26.20;84.90;;;;;;4829190;29;20031;-71
2022/10/18 12:47:04;;;;;;;;;;;26.70;82.20;;;;;;4832376;29;19934;-71
2022/10/18 12:49:32;;;;;;;;;;;27.10;81.50;;;;;;4928629;29;20123;-71
2022/10/18 12:51:59;;;;;;;;;;;26.80;81.00;;;;;;4920714;29;20066;-69
2022/10/18 12:54:34;;;;;;;;;;;26.20;82.80;;;;;;4907472;29;20258;-68
2022/10/18 12:57:00;;;;;;;;;;;25.80;82.00;;;;;;4937919;29;20299;-69
2022/10/18 12:59:26;;;;;;;;;;;24.90;83.70;;;;;;4943421;29;19927;-71
2022/10/18 13:01:52;;;;;;;;;;;24.60;84.20;;;;;;4944291;29;19929;-69
2022/10/18 13:04:27;;;;;;;;;;;24.30;85.10;;;;;;4961693;28;19930;-66
2022/10/18 13:07:06;;;;;;;;;;;24.10;84.80;;;;;;4960760;28;19926;-68
2022/10/18 13:09:35;;;;;;;;;;;23.70;85.60;;;;;;4961030;29;19926;-70
2022/10/18 13:12:11;;;;;;;;;;;23.40;87.50;;;;;;4960791;29;19923;-65
2022/10/18 13:14:52;;;;;;;;;;;23.30;86.60;;;;;;4940667;28;19934;-64
2022/10/18 13:17:36;;;;;;;;;;;22.70;87.20;;;;;;4959894;28;19926;-68
2022/10/18 13:20:09;;;;;;;;;;;22.70;87.80;;;;;;4957280;28;19927;-65
2022/10/18 13:22:44;;;;;;;;;;;22.50;89.80;;;;;;4940592;29;20027;-65
2022/10/18 13:25:14;;;;;;;;;;;22.50;88.90;;;;;;4941003;29;20386;-66
2022/10/18 13:27:46;;;;;;;;;;;22.00;89.00;;;;;;4956936;29;20013;-67
2022/10/18 13:30:30;;;;;;;;;;;22.30;89.70;;;;;;4958703;29;19994;-70
2022/10/18 13:33:17;;;;;;;;;;;22.20;90.00;;;;;;4957387;28;19982;-68
2022/10/18 13:35:54;;;;;;;;;;;22.00;90.10;;;;;;4948838;28;19926;-65
2022/10/18 13:38:34;;;;;;;;;;;22.20;90.40;;;;;;4941465;29;19974;-64
2022/10/18 13:41:01;;;;;;;;;;;21.70;90.50;;;;;;4958539;28;19927;-64
2022/10/18 13:43:56;;;;;;;;;;;22.00;91.30;;;;;;4957295;28;20356;-66
2022/10/18 13:46:23;;;;;;;;;;;21.70;90.80;;;;;;4859818;29;19928;-65
2022/10/18 13:48:52;;;;;;;;;;;21.90;91.60;;;;;;4861463;29;19984;-71
2022/10/18 13:51:36;;;;;;;;;;;21.70;91.10;;;;;;4846026;29;20362;-67
2022/10/18 13:54:01;;;;;;;;;;;21.40;91.10;;;;;;4860175;29;19932;-66
2022/10/18 13:56:46;;;;;;;;;;;21.10;91.70;;;;;;4876073;29;19997;-65
2022/10/18 13:59:17;;;;;;;;;;;21.50;91.40;;;;;;4864378;29;19966;-64
2022/10/18 14:01:43;;;;;;;;;;;21.20;91.50;;;;;;4847926;29;20372;-71
2022/10/18 14:04:33;;;;;;;;;;;21.50;92.10;;;;;;4864474;29;20024;-70
2022/10/18 14:06:58;;;;;;;;;;;21.30;91.70;;;;;;4849265;29;19950;-67
2022/10/18 14:09:25;;;;;;;;;;;21.40;92.40;;;;;;4864446;29;19928;-67
2022/10/18 14:11:50;;;;;;;;;;;21.20;92.50;;;;;;4863559;29;19935;-65
2022/10/18 14:14:19;;;;;;;;;;;21.30;92.50;;;;;;4879580;29;19928;-65
2022/10/18 14:16:47;;;;;;;;;;;21.20;92.00;;;;;;4855352;29;19934;-66
2022/10/18 14:19:13;;;;;;;;;;;21.20;92.70;;;;;;4862361;29;19939;-65
2022/10/18 14:21:39;;;;;;;;;;;21.20;92.80;;;;;;4864953;29;20339;-65
2022/10/18 14:24:09;;;;;;;;;;;21.10;92.70;;;;;;4940272;29;19926;-69
2022/10/18 14:26:35;;;;;;;;;;;21.00;92.20;;;;;;4940213;29;19927;-65